sensor_id;sensor_type;location;lat;lon;timestamp;P1;durP1;ratioP1;P2;durP2;ratioP2
7128;SDS011;3606;52.930;8.644;2023-06-14T00:00:18;2.83;;;2.40;;
7128;SDS011;3606;52.930;8.644;2023-06-14T00:02:44;3.77;;;2.33;;
7128;SDS011;3606;52.930;8.644;2023-06-14T00:05:10;2.87;;;2.17;;
7128;SDS011;3606;52.930;8.644;2023-06-14T00:07:40;4.93;;;2.20;;
7128;SDS011;3606;52.930;8.644;2023-06-14T00:10:13;3.77;;;2.17;;
7128;SDS011;3606;52.930;8.644;2023-06-14T00:12:39;4.27;;;2.40;;
7128;SDS011;3606;52.930;8.644;2023-06-14T00:15:06;4.23;;;2.10;;
7128;SDS011;3606;52.930;8.644;2023-06-14T00:17:32;2.77;;;2.23;;
7128;SDS011;3606;52.930;8.644;2023-06-14T00:19:59;3.70;;;2.10;;
7128;SDS011;3606;52.930;8.644;2023-06-14T00:22:24;4.57;;;2.60;;
7128;SDS011;3606;52.930;8.644;2023-06-14T00:24:51;7.37;;;2.60;;
7128;SDS011;3606;52.930;8.644;2023-06-14T00:27:17;6.20;;;2.47;;
7128;SDS011;3606;52.930;8.644;2023-06-14T00:29:43;4.60;;;2.20;;
7128;SDS011;3606;52.930;8.644;2023-06-14T00:32:08;5.33;;;2.20;;
7128;SDS011;3606;52.930;8.644;2023-06-14T00:34:34;4.87;;;2.63;;
7128;SDS011;3606;52.930;8.644;2023-06-14T00:37:00;2.40;;;2.20;;
7128;SDS011;3606;52.930;8.644;2023-06-14T00:39:26;3.17;;;2.30;;
7128;SDS011;3606;52.930;8.644;2023-06-14T00:41:52;5.10;;;2.70;;
7128;SDS011;3606;52.930;8.644;2023-06-14T00:44:17;3.73;;;2.50;;
7128;SDS011;3606;52.930;8.644;2023-06-14T00:46:45;2.57;;;2.27;;
7128;SDS011;3606;52.930;8.644;2023-06-14T00:49:10;8.53;;;2.93;;
7128;SDS011;3606;52.930;8.644;2023-06-14T00:51:41;6.93;;;2.70;;
7128;SDS011;3606;52.930;8.644;2023-06-14T00:54:07;3.90;;;2.50;;
7128;SDS011;3606;52.930;8.644;2023-06-14T00:56:35;3.93;;;2.43;;
7128;SDS011;3606;52.930;8.644;2023-06-14T00:59:02;3.13;;;2.80;;
7128;SDS011;3606;52.930;8.644;2023-06-14T01:01:28;4.53;;;2.43;;
7128;SDS011;3606;52.930;8.644;2023-06-14T01:03:57;4.53;;;3.13;;
7128;SDS011;3606;52.930;8.644;2023-06-14T01:06:27;2.93;;;2.50;;
7128;SDS011;3606;52.930;8.644;2023-06-14T01:09:18;7.47;;;2.73;;
7128;SDS011;3606;52.930;8.644;2023-06-14T01:12:24;5.60;;;2.97;;
7128;SDS011;3606;52.930;8.644;2023-06-14T01:14:49;4.37;;;2.50;;
7128;SDS011;3606;52.930;8.644;2023-06-14T01:17:16;6.80;;;2.90;;
7128;SDS011;3606;52.930;8.644;2023-06-14T01:19:43;3.73;;;2.60;;
7128;SDS011;3606;52.930;8.644;2023-06-14T01:22:09;2.83;;;2.53;;
7128;SDS011;3606;52.930;8.644;2023-06-14T01:24:35;5.20;;;2.70;;
7128;SDS011;3606;52.930;8.644;2023-06-14T01:27:02;4.00;;;2.40;;
7128;SDS011;3606;52.930;8.644;2023-06-14T01:29:28;3.63;;;2.97;;
7128;SDS011;3606;52.930;8.644;2023-06-14T01:31:58;3.53;;;2.90;;
7128;SDS011;3606;52.930;8.644;2023-06-14T01:34:25;4.23;;;2.73;;
7128;SDS011;3606;52.930;8.644;2023-06-14T01:36:51;3.43;;;2.93;;
7128;SDS011;3606;52.930;8.644;2023-06-14T01:39:19;3.73;;;2.73;;
7128;SDS011;3606;52.930;8.644;2023-06-14T01:41:45;3.27;;;2.50;;
7128;SDS011;3606;52.930;8.644;2023-06-14T01:44:14;5.43;;;2.73;;
7128;SDS011;3606;52.930;8.644;2023-06-14T01:46:42;2.90;;;2.53;;
7128;SDS011;3606;52.930;8.644;2023-06-14T01:49:08;2.93;;;2.43;;
7128;SDS011;3606;52.930;8.644;2023-06-14T01:51:34;4.53;;;2.80;;
7128;SDS011;3606;52.930;8.644;2023-06-14T01:54:00;5.20;;;3.00;;
7128;SDS011;3606;52.930;8.644;2023-06-14T01:56:26;6.70;;;2.97;;
7128;SDS011;3606;52.930;8.644;2023-06-14T01:58:52;3.37;;;2.67;;
7128;SDS011;3606;52.930;8.644;2023-06-14T02:01:18;8.93;;;2.97;;
7128;SDS011;3606;52.930;8.644;2023-06-14T02:03:46;4.17;;;2.90;;
7128;SDS011;3606;52.930;8.644;2023-06-14T02:06:13;4.93;;;3.00;;
7128;SDS011;3606;52.930;8.644;2023-06-14T02:08:38;3.87;;;2.80;;
7128;SDS011;3606;52.930;8.644;2023-06-14T02:11:05;5.23;;;2.90;;
7128;SDS011;3606;52.930;8.644;2023-06-14T02:13:30;4.30;;;3.00;;
7128;SDS011;3606;52.930;8.644;2023-06-14T02:15:56;4.33;;;2.70;;
7128;SDS011;3606;52.930;8.644;2023-06-14T02:18:22;3.80;;;2.93;;
7128;SDS011;3606;52.930;8.644;2023-06-14T02:20:48;6.40;;;2.93;;
7128;SDS011;3606;52.930;8.644;2023-06-14T02:23:14;7.53;;;3.30;;
7128;SDS011;3606;52.930;8.644;2023-06-14T02:25:39;4.53;;;2.93;;
7128;SDS011;3606;52.930;8.644;2023-06-14T02:28:05;4.50;;;3.20;;
7128;SDS011;3606;52.930;8.644;2023-06-14T02:30:31;3.17;;;2.57;;
7128;SDS011;3606;52.930;8.644;2023-06-14T02:32:56;7.03;;;3.03;;
7128;SDS011;3606;52.930;8.644;2023-06-14T02:35:22;3.33;;;2.90;;
7128;SDS011;3606;52.930;8.644;2023-06-14T02:37:51;4.27;;;2.93;;
7128;SDS011;3606;52.930;8.644;2023-06-14T02:40:18;5.03;;;2.60;;
7128;SDS011;3606;52.930;8.644;2023-06-14T02:42:44;4.80;;;3.10;;
7128;SDS011;3606;52.930;8.644;2023-06-14T02:45:09;3.47;;;3.10;;
7128;SDS011;3606;52.930;8.644;2023-06-14T02:47:35;4.07;;;3.20;;
7128;SDS011;3606;52.930;8.644;2023-06-14T02:50:01;3.93;;;2.77;;
7128;SDS011;3606;52.930;8.644;2023-06-14T02:52:27;4.87;;;2.93;;
7128;SDS011;3606;52.930;8.644;2023-06-14T02:54:53;4.90;;;2.80;;
7128;SDS011;3606;52.930;8.644;2023-06-14T02:57:19;3.80;;;3.40;;
7128;SDS011;3606;52.930;8.644;2023-06-14T02:59:45;5.37;;;2.90;;
7128;SDS011;3606;52.930;8.644;2023-06-14T03:02:11;3.70;;;3.07;;
7128;SDS011;3606;52.930;8.644;2023-06-14T03:04:37;6.10;;;3.10;;
7128;SDS011;3606;52.930;8.644;2023-06-14T03:07:03;5.27;;;3.33;;
7128;SDS011;3606;52.930;8.644;2023-06-14T03:09:34;7.50;;;3.10;;
7128;SDS011;3606;52.930;8.644;2023-06-14T03:12:02;3.90;;;3.20;;
7128;SDS011;3606;52.930;8.644;2023-06-14T03:14:28;7.70;;;3.20;;
7128;SDS011;3606;52.930;8.644;2023-06-14T03:16:55;4.40;;;3.43;;
7128;SDS011;3606;52.930;8.644;2023-06-14T03:19:22;3.70;;;3.23;;
7128;SDS011;3606;52.930;8.644;2023-06-14T03:21:48;6.70;;;3.20;;
7128;SDS011;3606;52.930;8.644;2023-06-14T03:24:14;8.47;;;3.37;;
7128;SDS011;3606;52.930;8.644;2023-06-14T03:26:41;4.43;;;3.30;;
7128;SDS011;3606;52.930;8.644;2023-06-14T03:29:07;5.10;;;3.20;;
7128;SDS011;3606;52.930;8.644;2023-06-14T03:31:34;6.43;;;3.57;;
7128;SDS011;3606;52.930;8.644;2023-06-14T03:34:00;5.50;;;3.13;;
7128;SDS011;3606;52.930;8.644;2023-06-14T03:36:26;7.13;;;3.20;;
7128;SDS011;3606;52.930;8.644;2023-06-14T03:38:52;5.80;;;3.53;;
7128;SDS011;3606;52.930;8.644;2023-06-14T03:41:19;6.27;;;3.40;;
7128;SDS011;3606;52.930;8.644;2023-06-14T03:43:45;3.40;;;2.90;;
7128;SDS011;3606;52.930;8.644;2023-06-14T03:46:10;6.93;;;3.80;;
7128;SDS011;3606;52.930;8.644;2023-06-14T03:48:36;4.53;;;3.10;;
7128;SDS011;3606;52.930;8.644;2023-06-14T03:51:02;4.53;;;3.30;;
7128;SDS011;3606;52.930;8.644;2023-06-14T03:53:27;5.23;;;3.20;;
7128;SDS011;3606;52.930;8.644;2023-06-14T03:55:54;6.23;;;3.43;;
7128;SDS011;3606;52.930;8.644;2023-06-14T03:58:20;5.60;;;3.37;;
7128;SDS011;3606;52.930;8.644;2023-06-14T04:00:46;4.23;;;3.27;;
7128;SDS011;3606;52.930;8.644;2023-06-14T04:03:12;6.13;;;3.50;;
7128;SDS011;3606;52.930;8.644;2023-06-14T04:05:38;9.43;;;3.43;;
7128;SDS011;3606;52.930;8.644;2023-06-14T04:08:07;6.30;;;3.30;;
7128;SDS011;3606;52.930;8.644;2023-06-14T04:10:35;5.30;;;3.10;;
7128;SDS011;3606;52.930;8.644;2023-06-14T04:13:01;8.30;;;3.80;;
7128;SDS011;3606;52.930;8.644;2023-06-14T04:15:26;5.70;;;3.67;;
7128;SDS011;3606;52.930;8.644;2023-06-14T04:17:55;4.60;;;3.40;;
7128;SDS011;3606;52.930;8.644;2023-06-14T04:20:22;8.17;;;3.47;;
7128;SDS011;3606;52.930;8.644;2023-06-14T04:22:49;4.77;;;3.50;;
7128;SDS011;3606;52.930;8.644;2023-06-14T04:25:15;6.30;;;3.53;;
7128;SDS011;3606;52.930;8.644;2023-06-14T04:27:41;3.70;;;3.40;;
7128;SDS011;3606;52.930;8.644;2023-06-14T04:30:08;5.23;;;3.63;;
7128;SDS011;3606;52.930;8.644;2023-06-14T04:32:34;6.80;;;3.47;;
7128;SDS011;3606;52.930;8.644;2023-06-14T04:35:03;6.50;;;3.30;;
7128;SDS011;3606;52.930;8.644;2023-06-14T04:37:29;6.40;;;3.50;;
7128;SDS011;3606;52.930;8.644;2023-06-14T04:39:55;7.03;;;3.50;;
7128;SDS011;3606;52.930;8.644;2023-06-14T04:42:22;9.17;;;3.97;;
7128;SDS011;3606;52.930;8.644;2023-06-14T04:44:50;5.47;;;3.60;;
7128;SDS011;3606;52.930;8.644;2023-06-14T04:47:19;8.70;;;3.43;;
7128;SDS011;3606;52.930;8.644;2023-06-14T04:49:46;4.90;;;3.60;;
7128;SDS011;3606;52.930;8.644;2023-06-14T04:52:11;5.00;;;3.33;;
7128;SDS011;3606;52.930;8.644;2023-06-14T04:54:38;4.77;;;3.50;;
7128;SDS011;3606;52.930;8.644;2023-06-14T04:57:07;5.00;;;3.40;;
7128;SDS011;3606;52.930;8.644;2023-06-14T04:59:39;4.73;;;3.67;;
7128;SDS011;3606;52.930;8.644;2023-06-14T05:02:05;6.77;;;3.40;;
7128;SDS011;3606;52.930;8.644;2023-06-14T05:04:31;5.87;;;3.57;;
7128;SDS011;3606;52.930;8.644;2023-06-14T05:06:57;5.43;;;3.40;;
7128;SDS011;3606;52.930;8.644;2023-06-14T05:09:22;7.00;;;3.60;;
7128;SDS011;3606;52.930;8.644;2023-06-14T05:11:48;5.27;;;3.30;;
7128;SDS011;3606;52.930;8.644;2023-06-14T05:14:15;8.47;;;3.43;;
7128;SDS011;3606;52.930;8.644;2023-06-14T05:16:41;5.43;;;3.40;;
7128;SDS011;3606;52.930;8.644;2023-06-14T05:19:07;6.63;;;3.20;;
7128;SDS011;3606;52.930;8.644;2023-06-14T05:21:33;6.50;;;3.20;;
7128;SDS011;3606;52.930;8.644;2023-06-14T05:23:59;8.97;;;3.50;;
7128;SDS011;3606;52.930;8.644;2023-06-14T05:26:25;7.47;;;3.13;;
7128;SDS011;3606;52.930;8.644;2023-06-14T05:28:55;7.17;;;3.30;;
7128;SDS011;3606;52.930;8.644;2023-06-14T05:31:21;5.33;;;3.13;;
7128;SDS011;3606;52.930;8.644;2023-06-14T05:33:48;6.07;;;3.60;;
7128;SDS011;3606;52.930;8.644;2023-06-14T05:36:14;5.40;;;3.40;;
7128;SDS011;3606;52.930;8.644;2023-06-14T05:38:40;3.43;;;3.03;;
7128;SDS011;3606;52.930;8.644;2023-06-14T05:41:05;6.67;;;3.13;;
7128;SDS011;3606;52.930;8.644;2023-06-14T05:43:31;6.90;;;3.03;;
7128;SDS011;3606;52.930;8.644;2023-06-14T05:45:57;5.13;;;2.80;;
7128;SDS011;3606;52.930;8.644;2023-06-14T05:48:22;5.47;;;3.00;;
7128;SDS011;3606;52.930;8.644;2023-06-14T05:50:48;3.63;;;2.97;;
7128;SDS011;3606;52.930;8.644;2023-06-14T05:53:13;7.80;;;3.38;;
7128;SDS011;3606;52.930;8.644;2023-06-14T05:55:39;7.32;;;3.38;;
7128;SDS011;3606;52.930;8.644;2023-06-14T05:58:05;5.30;;;3.00;;
7128;SDS011;3606;52.930;8.644;2023-06-14T06:00:31;7.53;;;2.95;;
7128;SDS011;3606;52.930;8.644;2023-06-14T06:02:56;3.87;;;2.70;;
7128;SDS011;3606;52.930;8.644;2023-06-14T06:05:22;7.45;;;3.00;;
7128;SDS011;3606;52.930;8.644;2023-06-14T06:07:48;6.70;;;3.17;;
7128;SDS011;3606;52.930;8.644;2023-06-14T06:10:14;4.35;;;3.00;;
7128;SDS011;3606;52.930;8.644;2023-06-14T06:12:41;6.00;;;3.53;;
7128;SDS011;3606;52.930;8.644;2023-06-14T06:15:07;3.15;;;2.55;;
7128;SDS011;3606;52.930;8.644;2023-06-14T06:17:36;4.07;;;2.85;;
7128;SDS011;3606;52.930;8.644;2023-06-14T06:20:02;3.72;;;3.00;;
7128;SDS011;3606;52.930;8.644;2023-06-14T06:22:30;4.78;;;3.05;;
7128;SDS011;3606;52.930;8.644;2023-06-14T06:24:56;3.58;;;2.80;;
7128;SDS011;3606;52.930;8.644;2023-06-14T06:27:21;4.32;;;2.97;;
7128;SDS011;3606;52.930;8.644;2023-06-14T06:29:47;3.25;;;2.95;;
7128;SDS011;3606;52.930;8.644;2023-06-14T06:32:13;6.18;;;2.90;;
7128;SDS011;3606;52.930;8.644;2023-06-14T06:34:42;4.90;;;2.72;;
7128;SDS011;3606;52.930;8.644;2023-06-14T06:37:07;3.08;;;2.40;;
7128;SDS011;3606;52.930;8.644;2023-06-14T06:39:33;5.85;;;2.92;;
7128;SDS011;3606;52.930;8.644;2023-06-14T06:41:58;4.43;;;2.90;;
7128;SDS011;3606;52.930;8.644;2023-06-14T06:44:24;3.00;;;2.60;;
7128;SDS011;3606;52.930;8.644;2023-06-14T06:46:50;5.38;;;2.60;;
7128;SDS011;3606;52.930;8.644;2023-06-14T06:49:15;5.57;;;2.67;;
7128;SDS011;3606;52.930;8.644;2023-06-14T06:51:41;5.85;;;2.80;;
7128;SDS011;3606;52.930;8.644;2023-06-14T06:54:08;3.38;;;2.40;;
7128;SDS011;3606;52.930;8.644;2023-06-14T06:56:34;3.45;;;2.45;;
7128;SDS011;3606;52.930;8.644;2023-06-14T06:59:00;3.35;;;2.38;;
7128;SDS011;3606;52.930;8.644;2023-06-14T07:01:26;2.88;;;2.28;;
7128;SDS011;3606;52.930;8.644;2023-06-14T07:03:53;3.63;;;2.40;;
7128;SDS011;3606;52.930;8.644;2023-06-14T07:06:19;3.92;;;2.80;;
7128;SDS011;3606;52.930;8.644;2023-06-14T07:08:45;2.85;;;2.60;;
7128;SDS011;3606;52.930;8.644;2023-06-14T07:11:13;3.92;;;2.50;;
7128;SDS011;3606;52.930;8.644;2023-06-14T07:13:39;3.53;;;2.38;;
7128;SDS011;3606;52.930;8.644;2023-06-14T07:16:04;5.38;;;2.22;;
7128;SDS011;3606;52.930;8.644;2023-06-14T07:18:30;4.95;;;2.80;;
7128;SDS011;3606;52.930;8.644;2023-06-14T07:20:56;3.45;;;2.30;;
7128;SDS011;3606;52.930;8.644;2023-06-14T07:23:22;3.28;;;2.47;;
7128;SDS011;3606;52.930;8.644;2023-06-14T07:25:48;5.15;;;2.58;;
7128;SDS011;3606;52.930;8.644;2023-06-14T07:28:14;3.83;;;2.30;;
7128;SDS011;3606;52.930;8.644;2023-06-14T07:30:41;3.17;;;2.33;;
7128;SDS011;3606;52.930;8.644;2023-06-14T07:33:06;5.68;;;2.55;;
7128;SDS011;3606;52.930;8.644;2023-06-14T07:35:33;4.45;;;2.50;;
7128;SDS011;3606;52.930;8.644;2023-06-14T07:37:59;5.40;;;2.40;;
7128;SDS011;3606;52.930;8.644;2023-06-14T07:40:24;3.25;;;2.47;;
7128;SDS011;3606;52.930;8.644;2023-06-14T07:42:50;4.15;;;2.20;;
7128;SDS011;3606;52.930;8.644;2023-06-14T07:45:15;2.13;;;1.92;;
7128;SDS011;3606;52.930;8.644;2023-06-14T07:47:41;4.15;;;2.30;;
7128;SDS011;3606;52.930;8.644;2023-06-14T07:50:07;2.42;;;2.22;;
7128;SDS011;3606;52.930;8.644;2023-06-14T07:52:33;5.57;;;2.00;;
7128;SDS011;3606;52.930;8.644;2023-06-14T07:54:59;2.50;;;2.30;;
7128;SDS011;3606;52.930;8.644;2023-06-14T07:57:25;2.85;;;1.90;;
7128;SDS011;3606;52.930;8.644;2023-06-14T07:59:50;2.90;;;2.45;;
7128;SDS011;3606;52.930;8.644;2023-06-14T08:02:16;6.40;;;2.28;;
7128;SDS011;3606;52.930;8.644;2023-06-14T08:04:42;6.72;;;2.63;;
7128;SDS011;3606;52.930;8.644;2023-06-14T08:07:07;6.15;;;2.38;;
7128;SDS011;3606;52.930;8.644;2023-06-14T08:09:34;2.88;;;1.90;;
7128;SDS011;3606;52.930;8.644;2023-06-14T08:12:02;3.90;;;2.30;;
7128;SDS011;3606;52.930;8.644;2023-06-14T08:14:33;2.28;;;2.08;;
7128;SDS011;3606;52.930;8.644;2023-06-14T08:16:59;4.30;;;2.50;;
7128;SDS011;3606;52.930;8.644;2023-06-14T08:19:24;2.13;;;1.92;;
7128;SDS011;3606;52.930;8.644;2023-06-14T08:21:50;2.30;;;2.00;;
7128;SDS011;3606;52.930;8.644;2023-06-14T08:24:16;3.88;;;2.20;;
7128;SDS011;3606;52.930;8.644;2023-06-14T08:26:42;2.50;;;2.20;;
7128;SDS011;3606;52.930;8.644;2023-06-14T08:29:07;1.77;;;1.67;;
7128;SDS011;3606;52.930;8.644;2023-06-14T08:31:33;2.40;;;2.08;;
7128;SDS011;3606;52.930;8.644;2023-06-14T08:33:59;3.50;;;2.05;;
7128;SDS011;3606;52.930;8.644;2023-06-14T08:36:25;3.83;;;2.05;;
7128;SDS011;3606;52.930;8.644;2023-06-14T08:38:53;2.58;;;2.05;;
7128;SDS011;3606;52.930;8.644;2023-06-14T08:41:22;2.35;;;1.90;;
7128;SDS011;3606;52.930;8.644;2023-06-14T08:43:49;3.53;;;2.05;;
7128;SDS011;3606;52.930;8.644;2023-06-14T08:46:17;3.78;;;2.10;;
7128;SDS011;3606;52.930;8.644;2023-06-14T08:48:46;3.47;;;1.70;;
7128;SDS011;3606;52.930;8.644;2023-06-14T08:51:14;2.63;;;1.90;;
7128;SDS011;3606;52.930;8.644;2023-06-14T08:53:44;3.70;;;1.88;;
7128;SDS011;3606;52.930;8.644;2023-06-14T08:56:11;4.75;;;2.10;;
7128;SDS011;3606;52.930;8.644;2023-06-14T08:58:42;2.58;;;2.38;;
7128;SDS011;3606;52.930;8.644;2023-06-14T09:01:10;3.05;;;2.00;;
7128;SDS011;3606;52.930;8.644;2023-06-14T09:03:41;2.50;;;1.95;;
7128;SDS011;3606;52.930;8.644;2023-06-14T09:06:07;4.50;;;2.10;;
7128;SDS011;3606;52.930;8.644;2023-06-14T09:08:38;4.25;;;2.00;;
7128;SDS011;3606;52.930;8.644;2023-06-14T09:11:06;2.78;;;1.98;;
7128;SDS011;3606;52.930;8.644;2023-06-14T09:13:33;2.75;;;2.10;;
7128;SDS011;3606;52.930;8.644;2023-06-14T09:15:59;2.20;;;2.00;;
7128;SDS011;3606;52.930;8.644;2023-06-14T09:18:35;2.92;;;2.13;;
7128;SDS011;3606;52.930;8.644;2023-06-14T09:21:09;2.70;;;2.03;;
7128;SDS011;3606;52.930;8.644;2023-06-14T09:23:36;3.47;;;2.10;;
7128;SDS011;3606;52.930;8.644;2023-06-14T09:26:10;2.67;;;2.05;;
7128;SDS011;3606;52.930;8.644;2023-06-14T09:28:36;4.53;;;2.38;;
7128;SDS011;3606;52.930;8.644;2023-06-14T09:31:05;2.50;;;2.15;;
7128;SDS011;3606;52.930;8.644;2023-06-14T09:33:33;4.30;;;2.20;;
7128;SDS011;3606;52.930;8.644;2023-06-14T09:35:59;2.33;;;2.10;;
7128;SDS011;3606;52.930;8.644;2023-06-14T09:38:25;3.15;;;2.25;;
7128;SDS011;3606;52.930;8.644;2023-06-14T09:40:51;2.40;;;2.17;;
7128;SDS011;3606;52.930;8.644;2023-06-14T09:43:17;2.38;;;1.90;;
7128;SDS011;3606;52.930;8.644;2023-06-14T09:45:43;3.90;;;2.38;;
7128;SDS011;3606;52.930;8.644;2023-06-14T09:48:13;3.88;;;2.20;;
7128;SDS011;3606;52.930;8.644;2023-06-14T09:50:42;4.75;;;2.50;;
7128;SDS011;3606;52.930;8.644;2023-06-14T09:53:15;2.95;;;1.67;;
7128;SDS011;3606;52.930;8.644;2023-06-14T09:55:41;2.75;;;2.20;;
7128;SDS011;3606;52.930;8.644;2023-06-14T09:58:08;2.83;;;2.20;;
7128;SDS011;3606;52.930;8.644;2023-06-14T10:00:35;2.42;;;2.22;;
7128;SDS011;3606;52.930;8.644;2023-06-14T10:03:14;4.32;;;2.40;;
7128;SDS011;3606;52.930;8.644;2023-06-14T10:05:46;5.40;;;2.03;;
7128;SDS011;3606;52.930;8.644;2023-06-14T10:08:15;2.38;;;2.10;;
7128;SDS011;3606;52.930;8.644;2023-06-14T10:10:44;2.53;;;2.20;;
7128;SDS011;3606;52.930;8.644;2023-06-14T10:13:10;2.45;;;1.98;;
7128;SDS011;3606;52.930;8.644;2023-06-14T10:15:49;4.25;;;2.20;;
7128;SDS011;3606;52.930;8.644;2023-06-14T10:21:04;3.38;;;2.40;;
7128;SDS011;3606;52.930;8.644;2023-06-14T10:23:46;2.25;;;2.05;;
7128;SDS011;3606;52.930;8.644;2023-06-14T10:26:20;3.88;;;2.30;;
7128;SDS011;3606;52.930;8.644;2023-06-14T10:31:46;3.72;;;2.58;;
7128;SDS011;3606;52.930;8.644;2023-06-14T10:34:23;3.97;;;2.25;;
7128;SDS011;3606;52.930;8.644;2023-06-14T10:37:02;2.97;;;2.35;;
7128;SDS011;3606;52.930;8.644;2023-06-14T10:39:29;2.75;;;2.20;;
7128;SDS011;3606;52.930;8.644;2023-06-14T10:41:56;4.07;;;2.10;;
7128;SDS011;3606;52.930;8.644;2023-06-14T10:46:48;2.40;;;2.20;;
7128;SDS011;3606;52.930;8.644;2023-06-14T10:49:17;2.42;;;1.80;;
7128;SDS011;3606;52.930;8.644;2023-06-14T10:51:45;2.28;;;2.10;;
7128;SDS011;3606;52.930;8.644;2023-06-14T10:54:15;6.63;;;2.50;;
7128;SDS011;3606;52.930;8.644;2023-06-14T10:56:48;3.40;;;2.05;;
7128;SDS011;3606;52.930;8.644;2023-06-14T10:59:16;2.47;;;2.25;;
7128;SDS011;3606;52.930;8.644;2023-06-14T11:04:17;3.38;;;2.28;;
7128;SDS011;3606;52.930;8.644;2023-06-14T11:06:47;2.55;;;2.10;;
7128;SDS011;3606;52.930;8.644;2023-06-14T11:09:20;5.82;;;2.42;;
7128;SDS011;3606;52.930;8.644;2023-06-14T11:12:06;5.47;;;2.22;;
7128;SDS011;3606;52.930;8.644;2023-06-14T11:14:35;2.65;;;2.38;;
7128;SDS011;3606;52.930;8.644;2023-06-14T11:17:01;3.25;;;2.28;;
7128;SDS011;3606;52.930;8.644;2023-06-14T11:19:27;4.55;;;2.50;;
7128;SDS011;3606;52.930;8.644;2023-06-14T11:21:54;2.97;;;2.40;;
7128;SDS011;3606;52.930;8.644;2023-06-14T11:24:20;3.90;;;2.20;;
7128;SDS011;3606;52.930;8.644;2023-06-14T11:26:46;3.00;;;2.20;;
7128;SDS011;3606;52.930;8.644;2023-06-14T11:29:12;2.28;;;2.08;;
7128;SDS011;3606;52.930;8.644;2023-06-14T11:31:42;2.60;;;2.00;;
7128;SDS011;3606;52.930;8.644;2023-06-14T11:34:09;2.50;;;2.30;;
7128;SDS011;3606;52.930;8.644;2023-06-14T11:36:35;2.30;;;2.10;;
7128;SDS011;3606;52.930;8.644;2023-06-14T11:39:04;2.45;;;2.25;;
7128;SDS011;3606;52.930;8.644;2023-06-14T11:41:32;3.63;;;2.58;;
7128;SDS011;3606;52.930;8.644;2023-06-14T11:44:00;2.53;;;2.20;;
7128;SDS011;3606;52.930;8.644;2023-06-14T11:46:27;5.05;;;2.53;;
7128;SDS011;3606;52.930;8.644;2023-06-14T11:48:53;2.38;;;2.17;;
7128;SDS011;3606;52.930;8.644;2023-06-14T11:51:18;3.83;;;2.65;;
7128;SDS011;3606;52.930;8.644;2023-06-14T11:53:45;3.05;;;2.55;;
7128;SDS011;3606;52.930;8.644;2023-06-14T11:56:11;2.33;;;2.13;;
7128;SDS011;3606;52.930;8.644;2023-06-14T11:58:37;5.05;;;2.60;;
7128;SDS011;3606;52.930;8.644;2023-06-14T12:01:03;5.68;;;2.45;;
7128;SDS011;3606;52.930;8.644;2023-06-14T12:03:29;3.05;;;2.50;;
7128;SDS011;3606;52.930;8.644;2023-06-14T12:06:04;3.13;;;2.45;;
7128;SDS011;3606;52.930;8.644;2023-06-14T12:08:35;10.52;;;2.83;;
7128;SDS011;3606;52.930;8.644;2023-06-14T12:11:05;2.60;;;2.38;;
7128;SDS011;3606;52.930;8.644;2023-06-14T12:13:33;3.50;;;2.47;;
7128;SDS011;3606;52.930;8.644;2023-06-14T12:16:00;6.28;;;2.47;;
7128;SDS011;3606;52.930;8.644;2023-06-14T12:18:33;3.47;;;2.45;;
7128;SDS011;3606;52.930;8.644;2023-06-14T12:21:00;4.20;;;2.50;;
7128;SDS011;3606;52.930;8.644;2023-06-14T12:23:39;2.92;;;2.35;;
7128;SDS011;3606;52.930;8.644;2023-06-14T12:26:12;3.83;;;2.40;;
7128;SDS011;3606;52.930;8.644;2023-06-14T12:28:40;3.47;;;2.63;;
7128;SDS011;3606;52.930;8.644;2023-06-14T12:31:07;3.08;;;2.38;;
7128;SDS011;3606;52.930;8.644;2023-06-14T12:33:33;4.60;;;2.60;;
7128;SDS011;3606;52.930;8.644;2023-06-14T12:35:59;2.83;;;2.40;;
7128;SDS011;3606;52.930;8.644;2023-06-14T12:38:24;3.70;;;2.92;;
7128;SDS011;3606;52.930;8.644;2023-06-14T12:40:50;3.60;;;2.53;;
7128;SDS011;3606;52.930;8.644;2023-06-14T12:43:16;5.97;;;2.83;;
7128;SDS011;3606;52.930;8.644;2023-06-14T12:45:41;5.43;;;2.50;;
7128;SDS011;3606;52.930;8.644;2023-06-14T12:48:07;7.40;;;2.83;;
7128;SDS011;3606;52.930;8.644;2023-06-14T12:50:34;5.35;;;2.85;;
7128;SDS011;3606;52.930;8.644;2023-06-14T12:52:59;3.15;;;2.85;;
7128;SDS011;3606;52.930;8.644;2023-06-14T12:55:25;5.80;;;2.60;;
7128;SDS011;3606;52.930;8.644;2023-06-14T12:57:51;2.97;;;2.67;;
7128;SDS011;3606;52.930;8.644;2023-06-14T13:00:16;3.03;;;2.72;;
7128;SDS011;3606;52.930;8.644;2023-06-14T13:02:43;3.75;;;2.60;;
7128;SDS011;3606;52.930;8.644;2023-06-14T13:05:08;4.88;;;2.40;;
7128;SDS011;3606;52.930;8.644;2023-06-14T13:07:34;7.03;;;2.80;;
7128;SDS011;3606;52.930;8.644;2023-06-14T13:10:00;4.40;;;2.50;;
7128;SDS011;3606;52.930;8.644;2023-06-14T13:12:25;6.28;;;3.10;;
7128;SDS011;3606;52.930;8.644;2023-06-14T13:14:51;3.33;;;2.60;;
7128;SDS011;3606;52.930;8.644;2023-06-14T13:17:17;4.70;;;2.80;;
7128;SDS011;3606;52.930;8.644;2023-06-14T13:19:42;3.35;;;2.78;;
7128;SDS011;3606;52.930;8.644;2023-06-14T13:22:08;3.45;;;2.78;;
7128;SDS011;3606;52.930;8.644;2023-06-14T13:24:34;2.97;;;2.70;;
7128;SDS011;3606;52.930;8.644;2023-06-14T13:26:59;5.95;;;2.70;;
7128;SDS011;3606;52.930;8.644;2023-06-14T13:29:25;4.35;;;2.53;;
7128;SDS011;3606;52.930;8.644;2023-06-14T13:31:52;4.32;;;2.70;;
7128;SDS011;3606;52.930;8.644;2023-06-14T13:34:18;4.28;;;2.65;;
7128;SDS011;3606;52.930;8.644;2023-06-14T13:36:44;4.75;;;2.70;;
7128;SDS011;3606;52.930;8.644;2023-06-14T13:39:10;4.65;;;2.78;;
7128;SDS011;3606;52.930;8.644;2023-06-14T13:41:38;3.00;;;2.70;;
7128;SDS011;3606;52.930;8.644;2023-06-14T13:44:03;4.20;;;3.08;;
7128;SDS011;3606;52.930;8.644;2023-06-14T13:46:29;3.45;;;2.80;;
7128;SDS011;3606;52.930;8.644;2023-06-14T13:48:56;3.72;;;2.70;;
7128;SDS011;3606;52.930;8.644;2023-06-14T13:51:22;4.40;;;2.88;;
7128;SDS011;3606;52.930;8.644;2023-06-14T13:53:48;4.57;;;2.45;;
7128;SDS011;3606;52.930;8.644;2023-06-14T13:56:15;8.95;;;3.20;;
7128;SDS011;3606;52.930;8.644;2023-06-14T13:58:41;3.35;;;2.80;;
7128;SDS011;3606;52.930;8.644;2023-06-14T14:01:07;6.28;;;2.70;;
7128;SDS011;3606;52.930;8.644;2023-06-14T14:03:33;3.05;;;2.70;;
7128;SDS011;3606;52.930;8.644;2023-06-14T14:06:00;6.50;;;2.88;;
7128;SDS011;3606;52.930;8.644;2023-06-14T14:08:27;3.55;;;2.80;;
7128;SDS011;3606;52.930;8.644;2023-06-14T14:10:53;4.20;;;2.85;;
7128;SDS011;3606;52.930;8.644;2023-06-14T14:13:19;3.00;;;2.80;;
7128;SDS011;3606;52.930;8.644;2023-06-14T14:15:45;3.20;;;2.63;;
7128;SDS011;3606;52.930;8.644;2023-06-14T14:18:11;4.70;;;2.67;;
7128;SDS011;3606;52.930;8.644;2023-06-14T14:20:37;3.03;;;2.42;;
7128;SDS011;3606;52.930;8.644;2023-06-14T14:23:02;3.95;;;2.85;;
7128;SDS011;3606;52.930;8.644;2023-06-14T14:25:28;4.07;;;2.60;;
7128;SDS011;3606;52.930;8.644;2023-06-14T14:27:54;3.83;;;2.75;;
7128;SDS011;3606;52.930;8.644;2023-06-14T14:30:19;3.40;;;2.60;;
7128;SDS011;3606;52.930;8.644;2023-06-14T14:32:48;3.47;;;2.63;;
7128;SDS011;3606;52.930;8.644;2023-06-14T14:35:17;3.25;;;2.83;;
7128;SDS011;3606;52.930;8.644;2023-06-14T14:37:43;4.97;;;2.95;;
7128;SDS011;3606;52.930;8.644;2023-06-14T14:40:09;7.78;;;2.97;;
7128;SDS011;3606;52.930;8.644;2023-06-14T14:42:35;3.30;;;3.00;;
7128;SDS011;3606;52.930;8.644;2023-06-14T14:45:01;5.53;;;2.80;;
7128;SDS011;3606;52.930;8.644;2023-06-14T14:47:27;3.67;;;2.90;;
7128;SDS011;3606;52.930;8.644;2023-06-14T14:49:52;5.13;;;3.90;;
7128;SDS011;3606;52.930;8.644;2023-06-14T14:52:18;2.60;;;2.40;;
7128;SDS011;3606;52.930;8.644;2023-06-14T14:54:43;2.80;;;2.60;;
7128;SDS011;3606;52.930;8.644;2023-06-14T14:57:09;4.82;;;2.80;;
7128;SDS011;3606;52.930;8.644;2023-06-14T14:59:35;5.10;;;2.90;;
7128;SDS011;3606;52.930;8.644;2023-06-14T15:02:01;3.88;;;2.72;;
7128;SDS011;3606;52.930;8.644;2023-06-14T15:04:26;4.38;;;2.70;;
7128;SDS011;3606;52.930;8.644;2023-06-14T15:06:52;6.50;;;2.80;;
7128;SDS011;3606;52.930;8.644;2023-06-14T15:09:18;3.20;;;2.90;;
7128;SDS011;3606;52.930;8.644;2023-06-14T15:11:43;3.60;;;2.80;;
7128;SDS011;3606;52.930;8.644;2023-06-14T15:14:09;3.53;;;2.50;;
7128;SDS011;3606;52.930;8.644;2023-06-14T15:16:35;5.90;;;2.67;;
7128;SDS011;3606;52.930;8.644;2023-06-14T15:19:01;4.20;;;2.58;;
7128;SDS011;3606;52.930;8.644;2023-06-14T15:21:26;3.53;;;2.70;;
7128;SDS011;3606;52.930;8.644;2023-06-14T15:23:52;4.32;;;2.90;;